sensor_id;sensor_type;location;lat;lon;timestamp;P1;durP1;ratioP1;P2;durP2;ratioP2
59416;SDS011;45222;52.458;20.914;2023-03-11T00:03:19;29.00;;;20.40;;
59416;SDS011;45222;52.458;20.914;2023-03-11T00:07:06;31.40;;;21.60;;
59416;SDS011;45222;52.458;20.914;2023-03-11T00:10:53;29.40;;;21.80;;
59416;SDS011;45222;52.458;20.914;2023-03-11T00:14:41;27.50;;;21.30;;
59416;SDS011;45222;52.458;20.914;2023-03-11T00:18:27;26.80;;;20.20;;
59416;SDS011;45222;52.458;20.914;2023-03-11T00:22:13;28.80;;;21.00;;
59416;SDS011;45222;52.458;20.914;2023-03-11T00:25:59;27.30;;;20.00;;
59416;SDS011;45222;52.458;20.914;2023-03-11T00:29:45;28.70;;;21.60;;
59416;SDS011;45222;52.458;20.914;2023-03-11T00:33:31;28.00;;;21.70;;
59416;SDS011;45222;52.458;20.914;2023-03-11T00:37:16;26.10;;;19.80;;
59416;SDS011;45222;52.458;20.914;2023-03-11T00:41:01;27.90;;;20.10;;
59416;SDS011;45222;52.458;20.914;2023-03-11T00:44:47;27.80;;;19.90;;
59416;SDS011;45222;52.458;20.914;2023-03-11T00:48:32;26.40;;;19.80;;
59416;SDS011;45222;52.458;20.914;2023-03-11T00:52:17;27.40;;;20.20;;
59416;SDS011;45222;52.458;20.914;2023-03-11T00:56:06;28.00;;;21.10;;
59416;SDS011;45222;52.458;20.914;2023-03-11T00:59:52;28.30;;;19.60;;
59416;SDS011;45222;52.458;20.914;2023-03-11T01:03:37;31.60;;;21.70;;
59416;SDS011;45222;52.458;20.914;2023-03-11T01:07:23;33.90;;;22.10;;
59416;SDS011;45222;52.458;20.914;2023-03-11T01:11:08;29.00;;;20.20;;
59416;SDS011;45222;52.458;20.914;2023-03-11T01:14:54;28.50;;;21.00;;
59416;SDS011;45222;52.458;20.914;2023-03-11T01:18:41;30.20;;;21.80;;
59416;SDS011;45222;52.458;20.914;2023-03-11T01:22:26;27.20;;;20.40;;
59416;SDS011;45222;52.458;20.914;2023-03-11T01:26:11;28.60;;;20.70;;
59416;SDS011;45222;52.458;20.914;2023-03-11T01:29:58;27.10;;;19.90;;
59416;SDS011;45222;52.458;20.914;2023-03-11T01:33:43;26.30;;;19.40;;
59416;SDS011;45222;52.458;20.914;2023-03-11T01:37:28;26.90;;;20.60;;
59416;SDS011;45222;52.458;20.914;2023-03-11T01:41:13;27.30;;;20.50;;
59416;SDS011;45222;52.458;20.914;2023-03-11T01:44:59;25.30;;;19.30;;
59416;SDS011;45222;52.458;20.914;2023-03-11T01:48:45;23.80;;;18.20;;
59416;SDS011;45222;52.458;20.914;2023-03-11T01:52:31;25.80;;;17.60;;
59416;SDS011;45222;52.458;20.914;2023-03-11T01:56:18;24.60;;;18.20;;
59416;SDS011;45222;52.458;20.914;2023-03-11T02:00:05;25.30;;;19.70;;
59416;SDS011;45222;52.458;20.914;2023-03-11T02:03:58;27.30;;;19.10;;
59416;SDS011;45222;52.458;20.914;2023-03-11T02:07:45;24.50;;;17.80;;
59416;SDS011;45222;52.458;20.914;2023-03-11T02:11:31;24.10;;;18.10;;
59416;SDS011;45222;52.458;20.914;2023-03-11T02:15:17;25.10;;;17.50;;
59416;SDS011;45222;52.458;20.914;2023-03-11T02:19:06;21.80;;;15.90;;
59416;SDS011;45222;52.458;20.914;2023-03-11T02:23:01;23.10;;;16.70;;
59416;SDS011;45222;52.458;20.914;2023-03-11T02:26:50;23.70;;;19.50;;
59416;SDS011;45222;52.458;20.914;2023-03-11T02:30:39;21.60;;;16.10;;
59416;SDS011;45222;52.458;20.914;2023-03-11T02:34:27;22.10;;;16.20;;
59416;SDS011;45222;52.458;20.914;2023-03-11T02:38:12;19.10;;;14.30;;
59416;SDS011;45222;52.458;20.914;2023-03-11T02:41:58;19.80;;;13.90;;
59416;SDS011;45222;52.458;20.914;2023-03-11T02:45:44;21.70;;;14.80;;
59416;SDS011;45222;52.458;20.914;2023-03-11T02:49:31;23.30;;;16.40;;
59416;SDS011;45222;52.458;20.914;2023-03-11T02:53:17;22.60;;;16.60;;
59416;SDS011;45222;52.458;20.914;2023-03-11T02:57:02;25.10;;;16.50;;
59416;SDS011;45222;52.458;20.914;2023-03-11T03:00:48;23.60;;;16.60;;
59416;SDS011;45222;52.458;20.914;2023-03-11T03:04:33;24.50;;;16.60;;
59416;SDS011;45222;52.458;20.914;2023-03-11T03:08:18;22.00;;;16.40;;
59416;SDS011;45222;52.458;20.914;2023-03-11T03:12:04;23.30;;;16.30;;
59416;SDS011;45222;52.458;20.914;2023-03-11T03:15:49;20.70;;;14.50;;
59416;SDS011;45222;52.458;20.914;2023-03-11T03:19:37;23.40;;;10.50;;
59416;SDS011;45222;52.458;20.914;2023-03-11T03:23:22;21.60;;;14.10;;
59416;SDS011;45222;52.458;20.914;2023-03-11T03:27:08;24.60;;;11.30;;
59416;SDS011;45222;52.458;20.914;2023-03-11T03:30:53;23.50;;;16.30;;
59416;SDS011;45222;52.458;20.914;2023-03-11T03:34:38;20.00;;;14.60;;
59416;SDS011;45222;52.458;20.914;2023-03-11T03:38:23;22.90;;;15.10;;
59416;SDS011;45222;52.458;20.914;2023-03-11T03:42:09;21.50;;;15.30;;
59416;SDS011;45222;52.458;20.914;2023-03-11T03:45:57;23.70;;;17.20;;
59416;SDS011;45222;52.458;20.914;2023-03-11T03:49:43;21.00;;;15.10;;
59416;SDS011;45222;52.458;20.914;2023-03-11T03:53:29;21.90;;;14.80;;
59416;SDS011;45222;52.458;20.914;2023-03-11T03:57:16;19.70;;;14.50;;
59416;SDS011;45222;52.458;20.914;2023-03-11T04:01:01;21.00;;;14.40;;
59416;SDS011;45222;52.458;20.914;2023-03-11T04:04:47;19.70;;;14.30;;
59416;SDS011;45222;52.458;20.914;2023-03-11T04:08:32;21.00;;;14.10;;
59416;SDS011;45222;52.458;20.914;2023-03-11T04:12:17;17.80;;;12.70;;
59416;SDS011;45222;52.458;20.914;2023-03-11T04:16:03;19.30;;;13.60;;
59416;SDS011;45222;52.458;20.914;2023-03-11T04:19:49;21.30;;;14.30;;
59416;SDS011;45222;52.458;20.914;2023-03-11T04:23:35;18.20;;;13.40;;
59416;SDS011;45222;52.458;20.914;2023-03-11T04:27:22;19.20;;;9.70;;
59416;SDS011;45222;52.458;20.914;2023-03-11T04:31:07;19.10;;;12.70;;
59416;SDS011;45222;52.458;20.914;2023-03-11T04:34:54;17.70;;;12.70;;
59416;SDS011;45222;52.458;20.914;2023-03-11T04:38:39;21.40;;;14.00;;
59416;SDS011;45222;52.458;20.914;2023-03-11T04:42:24;19.80;;;14.30;;
59416;SDS011;45222;52.458;20.914;2023-03-11T04:46:09;20.00;;;14.30;;
59416;SDS011;45222;52.458;20.914;2023-03-11T04:49:55;27.80;;;19.60;;
59416;SDS011;45222;52.458;20.914;2023-03-11T04:53:40;21.80;;;16.60;;
59416;SDS011;45222;52.458;20.914;2023-03-11T04:57:25;29.40;;;21.50;;
59416;SDS011;45222;52.458;20.914;2023-03-11T05:01:11;23.80;;;18.10;;
59416;SDS011;45222;52.458;20.914;2023-03-11T05:04:56;23.50;;;16.50;;
59416;SDS011;45222;52.458;20.914;2023-03-11T05:08:41;22.20;;;14.80;;
59416;SDS011;45222;52.458;20.914;2023-03-11T05:12:26;21.50;;;15.20;;
59416;SDS011;45222;52.458;20.914;2023-03-11T05:16:11;36.20;;;26.60;;
59416;SDS011;45222;52.458;20.914;2023-03-11T05:19:56;20.80;;;14.30;;
59416;SDS011;45222;52.458;20.914;2023-03-11T05:23:42;18.30;;;12.00;;
59416;SDS011;45222;52.458;20.914;2023-03-11T05:27:27;16.80;;;11.70;;
59416;SDS011;45222;52.458;20.914;2023-03-11T05:31:13;17.00;;;12.90;;
59416;SDS011;45222;52.458;20.914;2023-03-11T05:34:58;16.70;;;11.00;;
59416;SDS011;45222;52.458;20.914;2023-03-11T05:38:43;16.90;;;11.30;;
59416;SDS011;45222;52.458;20.914;2023-03-11T05:42:28;14.70;;;6.50;;
59416;SDS011;45222;52.458;20.914;2023-03-11T05:46:14;14.60;;;9.10;;
59416;SDS011;45222;52.458;20.914;2023-03-11T05:49:59;13.40;;;8.50;;
59416;SDS011;45222;52.458;20.914;2023-03-11T05:53:45;13.10;;;8.60;;
59416;SDS011;45222;52.458;20.914;2023-03-11T05:57:31;13.70;;;8.80;;
59416;SDS011;45222;52.458;20.914;2023-03-11T06:01:17;17.40;;;10.40;;
59416;SDS011;45222;52.458;20.914;2023-03-11T06:05:03;14.50;;;10.60;;
59416;SDS011;45222;52.458;20.914;2023-03-11T06:08:50;15.90;;;10.70;;
59416;SDS011;45222;52.458;20.914;2023-03-11T06:12:35;16.20;;;11.30;;
59416;SDS011;45222;52.458;20.914;2023-03-11T06:16:21;19.70;;;9.30;;
59416;SDS011;45222;52.458;20.914;2023-03-11T06:20:09;16.00;;;10.80;;
59416;SDS011;45222;52.458;20.914;2023-03-11T06:23:55;14.60;;;9.50;;
59416;SDS011;45222;52.458;20.914;2023-03-11T06:27:40;19.50;;;10.70;;
59416;SDS011;45222;52.458;20.914;2023-03-11T06:31:27;17.70;;;11.40;;
59416;SDS011;45222;52.458;20.914;2023-03-11T06:35:12;17.70;;;11.80;;
59416;SDS011;45222;52.458;20.914;2023-03-11T06:38:58;14.80;;;10.10;;
59416;SDS011;45222;52.458;20.914;2023-03-11T06:42:45;15.10;;;9.70;;
59416;SDS011;45222;52.458;20.914;2023-03-11T06:46:30;15.90;;;10.40;;
59416;SDS011;45222;52.458;20.914;2023-03-11T06:50:16;12.00;;;7.80;;
59416;SDS011;45222;52.458;20.914;2023-03-11T06:54:02;14.00;;;8.00;;
59416;SDS011;45222;52.458;20.914;2023-03-11T06:57:47;11.50;;;7.40;;
59416;SDS011;45222;52.458;20.914;2023-03-11T07:01:33;11.60;;;7.40;;
59416;SDS011;45222;52.458;20.914;2023-03-11T07:05:18;12.70;;;7.30;;
59416;SDS011;45222;52.458;20.914;2023-03-11T07:09:03;12.00;;;6.80;;
59416;SDS011;45222;52.458;20.914;2023-03-11T07:12:49;12.40;;;7.50;;
59416;SDS011;45222;52.458;20.914;2023-03-11T07:16:34;10.80;;;7.40;;
59416;SDS011;45222;52.458;20.914;2023-03-11T07:20:21;12.20;;;7.40;;
59416;SDS011;45222;52.458;20.914;2023-03-11T07:24:07;12.80;;;7.80;;
59416;SDS011;45222;52.458;20.914;2023-03-11T07:27:55;11.10;;;7.90;;
59416;SDS011;45222;52.458;20.914;2023-03-11T07:31:40;12.90;;;9.70;;
59416;SDS011;45222;52.458;20.914;2023-03-11T07:35:25;14.50;;;10.40;;
59416;SDS011;45222;52.458;20.914;2023-03-11T07:39:12;16.00;;;12.10;;
59416;SDS011;45222;52.458;20.914;2023-03-11T07:42:59;14.30;;;12.00;;
59416;SDS011;45222;52.458;20.914;2023-03-11T07:46:45;14.40;;;11.80;;
59416;SDS011;45222;52.458;20.914;2023-03-11T07:50:30;13.80;;;10.80;;
59416;SDS011;45222;52.458;20.914;2023-03-11T07:54:16;17.10;;;13.00;;
59416;SDS011;45222;52.458;20.914;2023-03-11T07:58:01;15.20;;;13.30;;
59416;SDS011;45222;52.458;20.914;2023-03-11T08:01:46;17.80;;;13.80;;
59416;SDS011;45222;52.458;20.914;2023-03-11T08:05:33;15.20;;;12.90;;
59416;SDS011;45222;52.458;20.914;2023-03-11T08:09:18;15.40;;;12.80;;
59416;SDS011;45222;52.458;20.914;2023-03-11T08:13:04;20.00;;;14.90;;
59416;SDS011;45222;52.458;20.914;2023-03-11T08:16:49;18.10;;;15.30;;
59416;SDS011;45222;52.458;20.914;2023-03-11T08:20:35;18.00;;;15.30;;
59416;SDS011;45222;52.458;20.914;2023-03-11T08:24:21;21.10;;;16.30;;
59416;SDS011;45222;52.458;20.914;2023-03-11T08:28:07;20.40;;;15.30;;
59416;SDS011;45222;52.458;20.914;2023-03-11T08:31:52;18.40;;;15.70;;
59416;SDS011;45222;52.458;20.914;2023-03-11T08:35:38;19.90;;;16.40;;
59416;SDS011;45222;52.458;20.914;2023-03-11T08:39:23;20.40;;;17.60;;
59416;SDS011;45222;52.458;20.914;2023-03-11T08:43:11;19.70;;;17.00;;
59416;SDS011;45222;52.458;20.914;2023-03-11T08:46:59;23.30;;;17.30;;
59416;SDS011;45222;52.458;20.914;2023-03-11T08:50:45;22.50;;;17.50;;
59416;SDS011;45222;52.458;20.914;2023-03-11T08:54:30;27.30;;;19.40;;
59416;SDS011;45222;52.458;20.914;2023-03-11T08:58:16;23.60;;;18.30;;
59416;SDS011;45222;52.458;20.914;2023-03-11T09:02:01;25.80;;;19.70;;
59416;SDS011;45222;52.458;20.914;2023-03-11T09:05:47;25.80;;;20.40;;
59416;SDS011;45222;52.458;20.914;2023-03-11T09:09:33;24.60;;;18.50;;
59416;SDS011;45222;52.458;20.914;2023-03-11T09:13:18;24.30;;;19.90;;
59416;SDS011;45222;52.458;20.914;2023-03-11T09:17:04;28.30;;;22.30;;
59416;SDS011;45222;52.458;20.914;2023-03-11T09:20:50;30.10;;;23.60;;
59416;SDS011;45222;52.458;20.914;2023-03-11T09:24:40;30.60;;;23.20;;
59416;SDS011;45222;52.458;20.914;2023-03-11T09:28:25;31.20;;;22.50;;
59416;SDS011;45222;52.458;20.914;2023-03-11T09:32:11;24.30;;;18.10;;
59416;SDS011;45222;52.458;20.914;2023-03-11T09:35:57;22.40;;;16.20;;
59416;SDS011;45222;52.458;20.914;2023-03-11T09:39:43;23.00;;;16.80;;
59416;SDS011;45222;52.458;20.914;2023-03-11T09:43:37;21.80;;;15.40;;
59416;SDS011;45222;52.458;20.914;2023-03-11T09:47:36;20.10;;;14.60;;
59416;SDS011;45222;52.458;20.914;2023-03-11T09:51:25;19.70;;;14.00;;
59416;SDS011;45222;52.458;20.914;2023-03-11T09:55:26;16.30;;;10.80;;
59416;SDS011;45222;52.458;20.914;2023-03-11T09:59:24;13.00;;;6.10;;
59416;SDS011;45222;52.458;20.914;2023-03-11T10:03:19;12.20;;;9.50;;
59416;SDS011;45222;52.458;20.914;2023-03-11T10:07:12;12.90;;;10.50;;
59416;SDS011;45222;52.458;20.914;2023-03-11T10:11:06;12.30;;;6.20;;
59416;SDS011;45222;52.458;20.914;2023-03-11T10:15:03;13.10;;;10.70;;
59416;SDS011;45222;52.458;20.914;2023-03-11T10:18:58;12.10;;;9.90;;
59416;SDS011;45222;52.458;20.914;2023-03-11T10:22:53;11.40;;;9.00;;
59416;SDS011;45222;52.458;20.914;2023-03-11T10:26:45;10.50;;;8.30;;
59416;SDS011;45222;52.458;20.914;2023-03-11T10:30:34;11.00;;;8.70;;
59416;SDS011;45222;52.458;20.914;2023-03-11T10:34:25;9.90;;;5.90;;
59416;SDS011;45222;52.458;20.914;2023-03-11T10:38:16;11.70;;;8.60;;
59416;SDS011;45222;52.458;20.914;2023-03-11T10:42:05;9.40;;;7.50;;
59416;SDS011;45222;52.458;20.914;2023-03-11T10:45:56;10.70;;;8.30;;
59416;SDS011;45222;52.458;20.914;2023-03-11T10:49:42;8.50;;;6.30;;
59416;SDS011;45222;52.458;20.914;2023-03-11T10:53:28;8.90;;;5.10;;
59416;SDS011;45222;52.458;20.914;2023-03-11T10:57:22;9.90;;;5.70;;
59416;SDS011;45222;52.458;20.914;2023-03-11T11:01:13;7.80;;;5.80;;
59416;SDS011;45222;52.458;20.914;2023-03-11T11:05:04;8.10;;;5.40;;
59416;SDS011;45222;52.458;20.914;2023-03-11T11:09:13;8.80;;;6.20;;
59416;SDS011;45222;52.458;20.914;2023-03-11T11:13:00;11.20;;;6.00;;
59416;SDS011;45222;52.458;20.914;2023-03-11T11:16:59;8.70;;;6.50;;
59416;SDS011;45222;52.458;20.914;2023-03-11T11:20:53;8.20;;;5.70;;
59416;SDS011;45222;52.458;20.914;2023-03-11T11:24:43;8.50;;;4.80;;
59416;SDS011;45222;52.458;20.914;2023-03-11T11:28:29;10.10;;;4.10;;
59416;SDS011;45222;52.458;20.914;2023-03-11T11:32:17;8.50;;;4.00;;
59416;SDS011;45222;52.458;20.914;2023-03-11T11:36:11;9.30;;;6.40;;
59416;SDS011;45222;52.458;20.914;2023-03-11T11:39:59;9.20;;;6.30;;
59416;SDS011;45222;52.458;20.914;2023-03-11T11:43:54;11.50;;;8.40;;
59416;SDS011;45222;52.458;20.914;2023-03-11T11:47:43;9.50;;;5.10;;
59416;SDS011;45222;52.458;20.914;2023-03-11T11:51:33;9.20;;;6.60;;
59416;SDS011;45222;52.458;20.914;2023-03-11T11:55:23;9.40;;;5.00;;
59416;SDS011;45222;52.458;20.914;2023-03-11T11:59:14;7.30;;;3.60;;
59416;SDS011;45222;52.458;20.914;2023-03-11T12:03:07;11.50;;;8.30;;
59416;SDS011;45222;52.458;20.914;2023-03-11T12:07:13;9.60;;;5.40;;
59416;SDS011;45222;52.458;20.914;2023-03-11T12:11:11;10.00;;;7.20;;
59416;SDS011;45222;52.458;20.914;2023-03-11T12:15:03;12.30;;;7.00;;
59416;SDS011;45222;52.458;20.914;2023-03-11T12:18:57;10.10;;;7.60;;
59416;SDS011;45222;52.458;20.914;2023-03-11T12:23:02;11.70;;;8.30;;
59416;SDS011;45222;52.458;20.914;2023-03-11T12:27:00;12.20;;;6.50;;
59416;SDS011;45222;52.458;20.914;2023-03-11T12:30:52;12.90;;;6.40;;
59416;SDS011;45222;52.458;20.914;2023-03-11T12:38:30;11.50;;;9.00;;
59416;SDS011;45222;52.458;20.914;2023-03-11T12:42:18;11.20;;;5.40;;
59416;SDS011;45222;52.458;20.914;2023-03-11T12:46:06;12.00;;;6.00;;
59416;SDS011;45222;52.458;20.914;2023-03-11T12:49:52;12.90;;;9.50;;
59416;SDS011;45222;52.458;20.914;2023-03-11T12:53:43;11.10;;;6.20;;
59416;SDS011;45222;52.458;20.914;2023-03-11T12:57:31;11.30;;;6.80;;
59416;SDS011;45222;52.458;20.914;2023-03-11T13:05:41;13.40;;;7.20;;
59416;SDS011;45222;52.458;20.914;2023-03-11T13:09:37;11.30;;;6.00;;
59416;SDS011;45222;52.458;20.914;2023-03-11T13:13:34;10.10;;;7.40;;
59416;SDS011;45222;52.458;20.914;2023-03-11T13:25:30;9.00;;;4.30;;
59416;SDS011;45222;52.458;20.914;2023-03-11T13:29:30;11.40;;;8.90;;
59416;SDS011;45222;52.458;20.914;2023-03-11T13:37:22;11.60;;;7.90;;
59416;SDS011;45222;52.458;20.914;2023-03-11T13:41:16;10.00;;;6.90;;
59416;SDS011;45222;52.458;20.914;2023-03-11T13:45:07;10.00;;;5.10;;
59416;SDS011;45222;52.458;20.914;2023-03-11T13:49:03;9.10;;;5.00;;
59416;SDS011;45222;52.458;20.914;2023-03-11T13:52:54;11.20;;;7.50;;
59416;SDS011;45222;52.458;20.914;2023-03-11T13:56:44;10.60;;;7.30;;
59416;SDS011;45222;52.458;20.914;2023-03-11T14:00:33;12.30;;;5.70;;
59416;SDS011;45222;52.458;20.914;2023-03-11T14:04:19;10.10;;;6.40;;
59416;SDS011;45222;52.458;20.914;2023-03-11T14:08:16;9.40;;;6.30;;
59416;SDS011;45222;52.458;20.914;2023-03-11T14:12:05;7.10;;;3.30;;
59416;SDS011;45222;52.458;20.914;2023-03-11T14:15:52;8.00;;;3.70;;
59416;SDS011;45222;52.458;20.914;2023-03-11T14:19:43;8.90;;;6.00;;
59416;SDS011;45222;52.458;20.914;2023-03-11T14:23:48;9.30;;;6.00;;
59416;SDS011;45222;52.458;20.914;2023-03-11T14:31:22;10.30;;;4.40;;
59416;SDS011;45222;52.458;20.914;2023-03-11T14:35:19;10.20;;;3.40;;
59416;SDS011;45222;52.458;20.914;2023-03-11T14:39:15;8.50;;;4.20;;
59416;SDS011;45222;52.458;20.914;2023-03-11T14:43:09;8.80;;;5.20;;
59416;SDS011;45222;52.458;20.914;2023-03-11T14:46:57;7.70;;;3.20;;
59416;SDS011;45222;52.458;20.914;2023-03-11T14:50:47;10.30;;;3.00;;
59416;SDS011;45222;52.458;20.914;2023-03-11T14:54:33;9.30;;;4.10;;
59416;SDS011;45222;52.458;20.914;2023-03-11T14:58:21;10.30;;;4.00;;
59416;SDS011;45222;52.458;20.914;2023-03-11T15:06:25;8.90;;;5.90;;
59416;SDS011;45222;52.458;20.914;2023-03-11T15:10:13;8.50;;;3.60;;
59416;SDS011;45222;52.458;20.914;2023-03-11T15:14:12;10.30;;;5.50;;
59416;SDS011;45222;52.458;20.914;2023-03-11T15:18:14;7.10;;;2.70;;
59416;SDS011;45222;52.458;20.914;2023-03-11T15:22:16;7.60;;;3.60;;
59416;SDS011;45222;52.458;20.914;2023-03-11T15:26:14;7.50;;;4.20;;
59416;SDS011;45222;52.458;20.914;2023-03-11T15:30:04;8.30;;;2.20;;
59416;SDS011;45222;52.458;20.914;2023-03-11T15:34:07;9.00;;;4.80;;
59416;SDS011;45222;52.458;20.914;2023-03-11T15:38:11;6.80;;;3.40;;
59416;SDS011;45222;52.458;20.914;2023-03-11T15:42:09;9.80;;;5.60;;
59416;SDS011;45222;52.458;20.914;2023-03-11T15:45:58;11.00;;;5.80;;
59416;SDS011;45222;52.458;20.914;2023-03-11T15:49:45;7.60;;;3.40;;
59416;SDS011;45222;52.458;20.914;2023-03-11T15:53:31;8.40;;;5.20;;
59416;SDS011;45222;52.458;20.914;2023-03-11T15:57:18;9.60;;;5.50;;
59416;SDS011;45222;52.458;20.914;2023-03-11T16:01:06;9.10;;;5.30;;
59416;SDS011;45222;52.458;20.914;2023-03-11T16:04:52;11.00;;;6.90;;
59416;SDS011;45222;52.458;20.914;2023-03-11T16:08:38;8.00;;;3.40;;
59416;SDS011;45222;52.458;20.914;2023-03-11T16:12:24;10.70;;;6.50;;
59416;SDS011;45222;52.458;20.914;2023-03-11T16:16:10;10.00;;;6.30;;
59416;SDS011;45222;52.458;20.914;2023-03-11T16:20:00;5.80;;;2.70;;
59416;SDS011;45222;52.458;20.914;2023-03-11T16:23:45;6.90;;;2.80;;
59416;SDS011;45222;52.458;20.914;2023-03-11T16:27:31;9.10;;;3.00;;
59416;SDS011;45222;52.458;20.914;2023-03-11T16:31:17;11.40;;;4.20;;
59416;SDS011;45222;52.458;20.914;2023-03-11T16:35:02;9.90;;;4.70;;
59416;SDS011;45222;52.458;20.914;2023-03-11T16:38:48;9.40;;;4.10;;
59416;SDS011;45222;52.458;20.914;2023-03-11T16:42:34;13.50;;;7.80;;
59416;SDS011;45222;52.458;20.914;2023-03-11T16:46:19;6.40;;;2.60;;
59416;SDS011;45222;52.458;20.914;2023-03-11T16:50:05;8.60;;;5.10;;
59416;SDS011;45222;52.458;20.914;2023-03-11T16:53:55;13.00;;;5.50;;
59416;SDS011;45222;52.458;20.914;2023-03-11T16:57:41;11.60;;;3.80;;
59416;SDS011;45222;52.458;20.914;2023-03-11T17:01:26;10.60;;;3.00;;
59416;SDS011;45222;52.458;20.914;2023-03-11T17:05:11;13.20;;;6.30;;
59416;SDS011;45222;52.458;20.914;2023-03-11T17:08:57;24.80;;;5.60;;
59416;SDS011;45222;52.458;20.914;2023-03-11T17:12:42;23.20;;;11.90;;
59416;SDS011;45222;52.458;20.914;2023-03-11T17:16:27;12.80;;;4.90;;
59416;SDS011;45222;52.458;20.914;2023-03-11T17:20:13;14.50;;;9.90;;
59416;SDS011;45222;52.458;20.914;2023-03-11T17:23:58;16.00;;;9.50;;
59416;SDS011;45222;52.458;20.914;2023-03-11T17:27:43;13.10;;;5.40;;
59416;SDS011;45222;52.458;20.914;2023-03-11T17:31:28;12.60;;;5.30;;
59416;SDS011;45222;52.458;20.914;2023-03-11T17:35:14;10.50;;;4.90;;
59416;SDS011;45222;52.458;20.914;2023-03-11T17:38:59;13.00;;;3.90;;
59416;SDS011;45222;52.458;20.914;2023-03-11T17:42:44;10.60;;;6.10;;
59416;SDS011;45222;52.458;20.914;2023-03-11T17:46:30;8.90;;;3.60;;
59416;SDS011;45222;52.458;20.914;2023-03-11T17:50:16;12.50;;;8.10;;
59416;SDS011;45222;52.458;20.914;2023-03-11T17:54:01;11.40;;;4.90;;
59416;SDS011;45222;52.458;20.914;2023-03-11T17:57:47;29.90;;;18.80;;
59416;SDS011;45222;52.458;20.914;2023-03-11T18:01:32;18.50;;;4.80;;
59416;SDS011;45222;52.458;20.914;2023-03-11T18:05:18;23.20;;;9.20;;
59416;SDS011;45222;52.458;20.914;2023-03-11T18:09:04;23.90;;;5.30;;
59416;SDS011;45222;52.458;20.914;2023-03-11T18:12:50;13.30;;;6.40;;
59416;SDS011;45222;52.458;20.914;2023-03-11T18:16:35;12.20;;;6.10;;
59416;SDS011;45222;52.458;20.914;2023-03-11T18:20:21;6.40;;;2.60;;
59416;SDS011;45222;52.458;20.914;2023-03-11T18:24:06;17.30;;;6.70;;
59416;SDS011;45222;52.458;20.914;2023-03-11T18:27:52;9.40;;;3.10;;
59416;SDS011;45222;52.458;20.914;2023-03-11T18:31:38;23.20;;;8.90;;
59416;SDS011;45222;52.458;20.914;2023-03-11T18:35:24;24.00;;;9.80;;
59416;SDS011;45222;52.458;20.914;2023-03-11T18:39:09;11.90;;;3.70;;
59416;SDS011;45222;52.458;20.914;2023-03-11T18:42:56;15.30;;;7.60;;
59416;SDS011;45222;52.458;20.914;2023-03-11T18:46:41;10.00;;;2.90;;
59416;SDS011;45222;52.458;20.914;2023-03-11T18:50:28;10.00;;;3.90;;
59416;SDS011;45222;52.458;20.914;2023-03-11T18:54:13;16.70;;;9.10;;
59416;SDS011;45222;52.458;20.914;2023-03-11T18:57:59;10.70;;;3.60;;
59416;SDS011;45222;52.458;20.914;2023-03-11T19:01:45;11.90;;;6.40;;
59416;SDS011;45222;52.458;20.914;2023-03-11T19:05:36;10.90;;;3.40;;
59416;SDS011;45222;52.458;20.914;2023-03-11T19:09:22;13.40;;;6.80;;
59416;SDS011;45222;52.458;20.914;2023-03-11T19:13:07;10.70;;;3.80;;
59416;SDS011;45222;52.458;20.914;2023-03-11T19:16:53;12.80;;;7.00;;
59416;SDS011;45222;52.458;20.914;2023-03-11T19:20:38;14.70;;;5.10;;
59416;SDS011;45222;52.458;20.914;2023-03-11T19:24:24;15.90;;;10.70;;
59416;SDS011;45222;52.458;20.914;2023-03-11T19:28:10;16.00;;;7.80;;
59416;SDS011;45222;52.458;20.914;2023-03-11T19:31:55;8.70;;;2.90;;
59416;SDS011;45222;52.458;20.914;2023-03-11T19:35:41;15.80;;;7.90;;
59416;SDS011;45222;52.458;20.914;2023-03-11T19:39:27;11.80;;;2.90;;
59416;SDS011;45222;52.458;20.914;2023-03-11T19:43:12;18.80;;;9.90;;
59416;SDS011;45222;52.458;20.914;2023-03-11T19:47:00;15.00;;;7.30;;
59416;SDS011;45222;52.458;20.914;2023-03-11T19:50:45;17.10;;;9.30;;
59416;SDS011;45222;52.458;20.914;2023-03-11T19:54:32;7.80;;;2.60;;
59416;SDS011;45222;52.458;20.914;2023-03-11T19:58:21;12.80;;;4.60;;
59416;SDS011;45222;52.458;20.914;2023-03-11T20:02:09;14.00;;;8.50;;
59416;SDS011;45222;52.458;20.914;2023-03-11T20:06:02;10.60;;;4.30;;
59416;SDS011;45222;52.458;20.914;2023-03-11T20:09:48;11.40;;;3.80;;
59416;SDS011;45222;52.458;20.914;2023-03-11T20:13:34;8.90;;;2.80;;
59416;SDS011;45222;52.458;20.914;2023-03-11T20:17:20;10.80;;;3.50;;
59416;SDS011;45222;52.458;20.914;2023-03-11T20:21:06;11.30;;;3.40;;
59416;SDS011;45222;52.458;20.914;2023-03-11T20:24:54;12.40;;;7.20;;
59416;SDS011;45222;52.458;20.914;2023-03-11T20:28:41;12.00;;;6.50;;
59416;SDS011;45222;52.458;20.914;2023-03-11T20:32:26;7.80;;;2.60;;
59416;SDS011;45222;52.458;20.914;2023-03-11T20:36:14;7.50;;;2.40;;
59416;SDS011;45222;52.458;20.914;2023-03-11T20:40:04;8.20;;;2.70;;
59416;SDS011;45222;52.458;20.914;2023-03-11T20:43:51;8.70;;;3.00;;
59416;SDS011;45222;52.458;20.914;2023-03-11T20:47:40;9.10;;;3.00;;
59416;SDS011;45222;52.458;20.914;2023-03-11T20:51:26;5.90;;;2.40;;
59416;SDS011;45222;52.458;20.914;2023-03-11T20:55:13;12.50;;;6.50;;
59416;SDS011;45222;52.458;20.914;2023-03-11T20:58:58;11.10;;;3.60;;
59416;SDS011;45222;52.458;20.914;2023-03-11T21:02:46;8.80;;;2.70;;
59416;SDS011;45222;52.458;20.914;2023-03-11T21:06:32;11.40;;;6.70;;
59416;SDS011;45222;52.458;20.914;2023-03-11T21:10:19;7.20;;;3.00;;
59416;SDS011;45222;52.458;20.914;2023-03-11T21:14:04;11.40;;;6.20;;
59416;SDS011;45222;52.458;20.914;2023-03-11T21:17:50;9.40;;;2.80;;
59416;SDS011;45222;52.458;20.914;2023-03-11T21:21:36;11.70;;;6.20;;
59416;SDS011;45222;52.458;20.914;2023-03-11T21:25:21;9.10;;;2.70;;
59416;SDS011;45222;52.458;20.914;2023-03-11T21:29:07;8.60;;;3.00;;
59416;SDS011;45222;52.458;20.914;2023-03-11T21:32:56;10.90;;;3.00;;
59416;SDS011;45222;52.458;20.914;2023-03-11T21:36:41;13.10;;;7.00;;
59416;SDS011;45222;52.458;20.914;2023-03-11T21:40:29;7.60;;;2.90;;
59416;SDS011;45222;52.458;20.914;2023-03-11T21:44:15;10.20;;;3.20;;
59416;SDS011;45222;52.458;20.914;2023-03-11T21:48:00;11.20;;;3.80;;
59416;SDS011;45222;52.458;20.914;2023-03-11T21:51:53;14.00;;;7.70;;
59416;SDS011;45222;52.458;20.914;2023-03-11T21:55:39;10.30;;;3.50;;
59416;SDS011;45222;52.458;20.914;2023-03-11T21:59:25;12.50;;;6.80;;
59416;SDS011;45222;52.458;20.914;2023-03-11T22:03:15;8.30;;;3.20;;
59416;SDS011;45222;52.458;20.914;2023-03-11T22:07:01;12.00;;;6.80;;
59416;SDS011;45222;52.458;20.914;2023-03-11T22:10:49;10.50;;;3.80;;
59416;SDS011;45222;52.458;20.914;2023-03-11T22:14:35;10.20;;;3.60;;
59416;SDS011;45222;52.458;20.914;2023-03-11T22:18:21;12.80;;;7.60;;
59416;SDS011;45222;52.458;20.914;2023-03-11T22:22:06;8.30;;;3.10;;
59416;SDS011;45222;52.458;20.914;2023-03-11T22:25:52;11.40;;;3.80;;
59416;SDS011;45222;52.458;20.914;2023-03-11T22:29:37;10.90;;;6.10;;
59416;SDS011;45222;52.458;20.914;2023-03-11T22:33:23;8.40;;;3.20;;
59416;SDS011;45222;52.458;20.914;2023-03-11T22:37:10;12.10;;;6.50;;